Time;durP1;ratioP1;P1;durP2;ratioP2;P2;SDS_P1;SDS_P2;PMS_P1;PMS_P2;Temp;Humidity;BMP_temperature;BMP_pressure;BME280_temperature;BME280_humidity;BME280_pressure;Samples;Min_cycle;Max_cycle;Signal;HPM_P1;HPM_P2
2022/01/27 00:00:43;;;;;;;32.1;37.7;;;;;;;1.2;84;99360;;;;
2022/01/27 00:10:49;;;;;;;32.1;37.7;;;;;;;1.3;84.2;99360;;;;
2022/01/27 00:21:39;;;;;;;27.7;33.2;;;;;;;1.2;84.2;99380;;;;
2022/01/27 00:31:39;;;;;;;27.7;33.2;;;;;;;1.2;84.2;99400;;;;
2022/01/27 00:41:39;;;;;;;27.7;33.2;;;;;;;1.1;84.1;99390;;;;
2022/01/27 00:52:42;;;;;;;23;27.9;;;;;;;1.1;84;99400;;;;
2022/01/27 01:03:42;;;;;;;23;27.9;;;;;;;1.2;83.8;99400;;;;
2022/01/27 01:14:20;;;;;;;23;27.9;;;;;;;1.1;83.4;99390;;;;
2022/01/27 01:33:40;;;;;;;22.2;25;;;;;;;1;83;99370;;;;
2022/01/27 01:44:39;;;;;;;22.2;25;;;;;;;1;82.9;99380;;;;
2022/01/27 01:54:39;;;;;;;19.8;22.9;;;;;;;1;82.8;99370;;;;
2022/01/27 02:05:45;;;;;;;19.8;22.9;;;;;;;0.9;83;99360;;;;
2022/01/27 02:27:39;;;;;;;21;26.8;;;;;;;1;82.9;99350;;;;
2022/01/27 02:38:39;;;;;;;21;26.8;;;;;;;0.9;82.6;99330;;;;
2022/01/27 02:48:39;;;;;;;21;26.8;;;;;;;0.9;82.2;99320;;;;
2022/01/27 02:58:39;;;;;;;21.4;24.8;;;;;;;1;81.7;99310;;;;
2022/01/27 03:09:39;;;;;;;21.4;24.8;;;;;;;1;81.7;99320;;;;
2022/01/27 03:19:39;;;;;;;19.2;24.9;;;;;;;1;81.5;99310;;;;
2022/01/27 03:30:39;;;;;;;19.2;24.9;;;;;;;1;81.1;99310;;;;
2022/01/27 03:40:39;;;;;;;19.2;24.9;;;;;;;1;81;99300;;;;
2022/01/27 03:51:39;;;;;;;15.5;17.3;;;;;;;1.1;80.7;99260;;;;
2022/01/27 04:02:50;;;;;;;15.5;17.3;;;;;;;1.1;80.5;99260;;;;
2022/01/27 04:12:39;;;;;;;15.5;17.3;;;;;;;1.1;79.6;99250;;;;
2022/01/27 04:22:39;;;;;;;12.7;16.1;;;;;;;1.2;79.3;99250;;;;
2022/01/27 04:32:44;;;;;;;12.7;16.1;;;;;;;1.3;79;99250;;;;
2022/01/27 04:42:49;;;;;;;12.7;16.1;;;;;;;1.3;79;99230;;;;
2022/01/27 04:52:44;;;;;;;11.7;14.5;;;;;;;1.4;79.1;99230;;;;
2022/01/27 05:03:43;;;;;;;11.7;14.5;;;;;;;1.3;79.2;99240;;;;
2022/01/27 05:14:39;;;;;;;11.7;14.5;;;;;;;1.2;79.9;99240;;;;
2022/01/27 05:24:39;;;;;;;17;20.7;;;;;;;1.2;80;99230;;;;
2022/01/27 05:34:39;;;;;;;17;20.7;;;;;;;1.2;80;99230;;;;
2022/01/27 05:45:39;;;;;;;17;20.7;;;;;;;1.3;79.9;99230;;;;
2022/01/27 05:56:39;;;;;;;25;28.7;;;;;;;1.3;79.7;99210;;;;
2022/01/27 06:07:39;;;;;;;25;28.7;;;;;;;1.3;79.4;99200;;;;
2022/01/27 06:18:39;;;;;;;19.6;21.8;;;;;;;1.3;79.3;99180;;;;
2022/01/27 06:28:39;;;;;;;19.6;21.8;;;;;;;1.2;79.8;99160;;;;
2022/01/27 06:39:39;;;;;;;19.6;21.8;;;;;;;1.2;79.7;99140;;;;
2022/01/27 06:49:39;;;;;;;16.7;21.7;;;;;;;1.4;79.2;99150;;;;
2022/01/27 06:59:39;;;;;;;16.7;21.7;;;;;;;1.4;78.7;99100;;;;
2022/01/27 07:10:39;;;;;;;16.7;21.7;;;;;;;1.6;77.8;99110;;;;
2022/01/27 07:20:39;;;;;;;14.7;17.4;;;;;;;1.9;77.5;99100;;;;
2022/01/27 07:30:39;;;;;;;14.7;17.4;;;;;;;1.9;77.4;99110;;;;
2022/01/27 07:41:39;;;;;;;14.7;17.4;;;;;;;1.9;76.9;99100;;;;
2022/01/27 07:51:39;;;;;;;17.8;22.2;;;;;;;1.9;76.8;99100;;;;
2022/01/27 08:02:39;;;;;;;17.8;22.2;;;;;;;2.1;76.4;99080;;;;
2022/01/27 08:12:39;;;;;;;17.8;22.2;;;;;;;2.3;76.1;99070;;;;
2022/01/27 08:23:41;;;;;;;20.8;23.2;;;;;;;2.7;75.4;99060;;;;
2022/01/27 08:34:41;;;;;;;20.8;23.2;;;;;;;2.9;74.4;99050;;;;
2022/01/27 08:44:39;;;;;;;20.8;23.2;;;;;;;3.1;74.6;99020;;;;
2022/01/27 08:54:39;;;;;;;26.2;29.7;;;;;;;3.4;73.9;99040;;;;
2022/01/27 09:04:39;;;;;;;26.2;29.7;;;;;;;3.4;73.1;99040;;;;
2022/01/27 09:15:39;;;;;;;26.2;29.7;;;;;;;3.8;72.4;99030;;;;
2022/01/27 09:25:43;;;;;;;25.3;28;;;;;;;4;71.4;99040;;;;
2022/01/27 09:36:39;;;;;;;25.3;28;;;;;;;3.9;71.1;99010;;;;
2022/01/27 09:46:41;;;;;;;25.3;28;;;;;;;3.6;71.7;99000;;;;
2022/01/27 09:56:40;;;;;;;26.5;32;;;;;;;3.6;72.3;99000;;;;
2022/01/27 10:07:39;;;;;;;26.5;32;;;;;;;3.8;71.6;98960;;;;
2022/01/27 10:17:40;;;;;;;25.8;31.2;;;;;;;3.7;71.4;98940;;;;
2022/01/27 10:28:44;;;;;;;25.8;31.2;;;;;;;3.8;71;98910;;;;
2022/01/27 10:38:39;;;;;;;25.8;31.2;;;;;;;3.5;70.7;98880;;;;
2022/01/27 10:48:39;;;;;;;19.6;23.4;;;;;;;3.5;69.9;98850;;;;
2022/01/27 10:59:39;;;;;;;19.6;23.4;;;;;;;3.7;70.8;98830;;;;
2022/01/27 11:09:41;;;;;;;19.6;23.4;;;;;;;3.7;71.1;98850;;;;
2022/01/27 11:20:02;;;;;;;19;22.1;;;;;;;3.3;71.1;98850;;;;
2022/01/27 11:30:39;;;;;;;19;22.1;;;;;;;3.3;70.8;98830;;;;
2022/01/27 11:41:39;;;;;;;19;22.1;;;;;;;3.2;69.7;98810;;;;
2022/01/27 11:51:39;;;;;;;14.8;19.8;;;;;;;2.9;70.3;98800;;;;
2022/01/27 12:01:39;;;;;;;14.8;19.8;;;;;;;2.9;70;98810;;;;
2022/01/27 12:11:39;;;;;;;14.8;19.8;;;;;;;2.8;70.2;98770;;;;
2022/01/27 12:22:39;;;;;;;13.7;17.5;;;;;;;3;70.5;98730;;;;
2022/01/27 12:32:40;;;;;;;13.7;17.5;;;;;;;3;70.3;98730;;;;
2022/01/27 12:42:39;;;;;;;13.7;17.5;;;;;;;2.8;70.2;98700;;;;
2022/01/27 12:52:41;;;;;;;16.5;20.6;;;;;;;2.8;70.4;98680;;;;
2022/01/27 13:02:39;;;;;;;16.5;20.6;;;;;;;3;70.3;98680;;;;
2022/01/27 13:13:41;;;;;;;16.5;20.6;;;;;;;3.1;70.2;98660;;;;
2022/01/27 13:24:39;;;;;;;15.9;19.4;;;;;;;3.1;70;98640;;;;
2022/01/27 13:35:39;;;;;;;15.9;19.4;;;;;;;3.1;70.3;98640;;;;
2022/01/27 13:45:39;;;;;;;15.9;19.4;;;;;;;3;70.5;98640;;;;
2022/01/27 13:56:39;;;;;;;18.8;24;;;;;;;3;70.6;98620;;;;
2022/01/27 14:06:39;;;;;;;18.8;24;;;;;;;3;71;98610;;;;
2022/01/27 14:17:39;;;;;;;27.3;32.2;;;;;;;3;71.2;98600;;;;
2022/01/27 14:27:39;;;;;;;27.3;32.2;;;;;;;3;71.9;98610;;;;
2022/01/27 14:38:39;;;;;;;27.3;32.2;;;;;;;2.9;71.3;98620;;;;
2022/01/27 14:48:42;;;;;;;29.5;38.8;;;;;;;2.8;71.8;98610;;;;
2022/01/27 14:59:40;;;;;;;29.5;38.8;;;;;;;2.7;71.9;98610;;;;
2022/01/27 15:09:39;;;;;;;29.5;38.8;;;;;;;2.7;72.4;98600;;;;
2022/01/27 15:20:40;;;;;;;29.1;34.1;;;;;;;2.6;74.4;98600;;;;
2022/01/27 15:30:39;;;;;;;29.1;34.1;;;;;;;2.3;76.6;98600;;;;
2022/01/27 15:40:39;;;;;;;29.1;34.1;;;;;;;2.1;78.2;98600;;;;
2022/01/27 15:51:40;;;;;;;30.5;38.5;;;;;;;1.9;79.5;98590;;;;
2022/01/27 16:02:39;;;;;;;30.5;38.5;;;;;;;1.7;80.9;98600;;;;
2022/01/27 16:12:41;;;;;;;30.5;38.5;;;;;;;1.6;81.5;98570;;;;
2022/01/27 16:23:39;;;;;;;35.2;42.4;;;;;;;1.4;82.6;98570;;;;
2022/01/27 16:34:39;;;;;;;35.2;42.4;;;;;;;1.4;82.9;98580;;;;
2022/01/27 16:44:39;;;;;;;35.2;42.4;;;;;;;1.4;83;98590;;;;
2022/01/27 16:55:39;;;;;;;40.2;45.2;;;;;;;1.4;83.3;98570;;;;
2022/01/27 17:05:39;;;;;;;40.2;45.2;;;;;;;1.3;83.6;98560;;;;
2022/01/27 17:15:39;;;;;;;40.2;45.2;;;;;;;1.3;83.6;98560;;;;
2022/01/27 17:25:39;;;;;;;39.8;46;;;;;;;1.4;83.6;98550;;;;
2022/01/27 17:36:39;;;;;;;39.8;46;;;;;;;1.3;83.9;98550;;;;
2022/01/27 17:46:39;;;;;;;42.1;48.4;;;;;;;1.4;83.8;98550;;;;
2022/01/27 17:57:39;;;;;;;42.1;48.4;;;;;;;1.5;83.8;98530;;;;
2022/01/27 18:07:43;;;;;;;42.1;48.4;;;;;;;1.6;83.7;98550;;;;
2022/01/27 18:18:39;;;;;;;41.1;48;;;;;;;1.6;83.7;98540;;;;
2022/01/27 18:28:39;;;;;;;41.1;48;;;;;;;1.6;83.5;98520;;;;
2022/01/27 18:38:39;;;;;;;41.1;48;;;;;;;1.7;83.2;98520;;;;
2022/01/27 18:49:39;;;;;;;26.9;31.4;;;;;;;1.7;82.5;98520;;;;
2022/01/27 18:59:39;;;;;;;26.9;31.4;;;;;;;1.8;82.3;98510;;;;
2022/01/27 19:09:39;;;;;;;26.9;31.4;;;;;;;1.8;82.3;98510;;;;
2022/01/27 19:20:39;;;;;;;20.6;23.7;;;;;;;1.8;82.1;98510;;;;
2022/01/27 19:31:39;;;;;;;20.6;23.7;;;;;;;1.9;81.9;98510;;;;
2022/01/27 19:41:39;;;;;;;20.6;23.7;;;;;;;1.8;82.2;98490;;;;
2022/01/27 19:51:40;;;;;;;24;28.2;;;;;;;1.8;82.1;98490;;;;
2022/01/27 20:01:39;;;;;;;24;28.2;;;;;;;1.8;82.3;98470;;;;
2022/01/27 20:11:39;;;;;;;24;28.2;;;;;;;1.8;82.1;98470;;;;
2022/01/27 20:22:39;;;;;;;21.7;24.4;;;;;;;1.9;81.9;98460;;;;
2022/01/27 20:32:39;;;;;;;21.7;24.4;;;;;;;1.9;82;98460;;;;
2022/01/27 20:43:39;;;;;;;21.7;24.4;;;;;;;2.1;81.8;98450;;;;
2022/01/27 20:53:46;;;;;;;19.9;23.2;;;;;;;2.2;81.5;98450;;;;
2022/01/27 21:04:39;;;;;;;19.9;23.2;;;;;;;2.3;81.5;98450;;;;
2022/01/27 21:15:39;;;;;;;22;27.4;;;;;;;2.4;81.4;98430;;;;
2022/01/27 21:25:39;;;;;;;22;27.4;;;;;;;2.5;81.2;98420;;;;
2022/01/27 21:35:39;;;;;;;22;27.4;;;;;;;2.6;81;98420;;;;
2022/01/27 21:46:39;;;;;;;17.3;20.6;;;;;;;2.7;80.9;98410;;;;
2022/01/27 21:57:39;;;;;;;17.3;20.6;;;;;;;2.8;80.9;98430;;;;
2022/01/27 22:08:39;;;;;;;17.3;20.6;;;;;;;2.8;80.6;98410;;;;
2022/01/27 22:18:39;;;;;;;16.7;20.1;;;;;;;2.8;80.5;98390;;;;
2022/01/27 22:28:39;;;;;;;16.7;20.1;;;;;;;2.7;80;98380;;;;
2022/01/27 22:39:39;;;;;;;16.7;20.1;;;;;;;2.8;79.6;98390;;;;
2022/01/27 22:49:39;;;;;;;14.1;16.9;;;;;;;2.8;79.2;98380;;;;
2022/01/27 22:59:39;;;;;;;14.1;16.9;;;;;;;2.8;79;98380;;;;
2022/01/27 23:09:39;;;;;;;14.1;16.9;;;;;;;2.8;79.1;98350;;;;
2022/01/27 23:20:49;;;;;;;11.9;14.6;;;;;;;2.9;79;98360;;;;
2022/01/27 23:31:42;;;;;;;11.9;14.6;;;;;;;2.8;79.6;98330;;;;
2022/01/27 23:43:00;;;;;;;11.9;14.6;;;;;;;2.9;79.3;98340;;;;
2022/01/27 23:52:49;;;;;;;12.5;16.1;;;;;;;3;78.3;98340;;;;
